• Join FlightAware (Why Join?)
  • Login
  • US Flag 
11:23PM EDT


 

Airport Tracker/Info


-or-


 

Live Flight TrackerFlight Track Log ✈ AAL34 ✈ 11-May-2013 ✈ KEWR - KJFK

Flight Track Log - Related Links

Times and Time Zones

All times are in EDT time to prevent confusion due to time zone crossing. See the AAL34 flight status page for this flight to view local times or setup timezone preferences in your user account.

Time Position Orientation Groundspeed Altitude Reporting Facility
EDT Latitude Longitude Course Direction KTS MPH feet Rate Location/Type
05:53PM 40.6833 -74.2667 303° West 266 306 4,600  Level New York TRACON
05:54PM 40.7667 -74.2333 17° North 303 349 6,000 660 Climbing New York TRACON
05:55PM 40.8333 -74.2167 11° North 289 333 6,000  Level New York TRACON
05:56PM 40.9167 -74.2000 North 292 336 6,000  Level New York TRACON
05:57PM 40.6622 -73.9434 180° South  Level Estimated
05:57PM 41.0000 -74.1500 24° Northeast 301 346 6,000  Level New York TRACON
05:58PM 41.0333 -74.0667 62° Northeast 303 349 6,000  Level New York TRACON
05:59PM 41.0833 -73.9833 51° Northeast 299 344 6,000  Level New York TRACON
06:00PM 41.1167 -73.9000 62° Northeast 297 342 6,000  Level New York TRACON
06:01PM 41.1667 -73.8000 56° Northeast 302 348 6,000 -480 Level New York TRACON
06:02PM 41.2167 -73.7000 56° Northeast 291 335 5,000 -480 Descending New York TRACON
06:03PM 41.2667 -73.6167 51° Northeast 290 334 5,000  Level New York TRACON
06:04PM 41.3000 -73.5333 62° Northeast 295 339 5,000  Level New York TRACON
06:05PM 41.2833 -73.4333 102° East 279 321 5,000  Level New York TRACON
06:06PM 41.2333 -73.3500 129° Southeast 279 321 5,000 -180 Level New York TRACON
06:07PM 41.1833 -73.2833 135° Southeast 273 314 4,700 -540 Descending New York TRACON
06:08PM 41.1167 -73.2833 180° South 250 288 4,000 -420 Descending New York TRACON
06:09PM 41.0500 -73.2833 180° South 255 293 4,000  Level New York TRACON
06:10PM 40.9833 -73.2833 180° South 255 293 4,000  Level New York TRACON
06:11PM 40.9167 -73.3000 191° South 249 287 4,000  Level New York TRACON
06:12PM 40.8833 -73.3833 242° Southwest 227 261 4,000 -420 Level New York TRACON
06:13PM 40.8667 -73.4667 255° West 206 237 3,200 -600 Descending New York TRACON
06:14PM 40.8500 -73.5167 246° West 166 191 2,900 -660 Descending New York TRACON
06:15PM 40.8333 -73.5667 246° West 167 192 2,000 -480 Descending New York TRACON
06:16PM 40.8167 -73.6167 246° West 171 197 2,000  Level New York TRACON
06:17PM 40.7667 -73.6500 207° Southwest 177 204 2,000 -60 Level New York TRACON
06:18PM 40.7333 -73.6833 217° Southwest 174 200 1,900 -480 Descending New York TRACON
06:19PM 40.7000 -73.7167 217° Southwest 140 161 1,100 -840 Descending New York TRACON